createdAt,value
2018-12-16T00:01:07.724Z,14.03
2018-12-16T00:03:42.762Z,14.10
2018-12-16T00:06:14.684Z,13.00
2018-12-16T00:08:49.457Z,13.40
2018-12-16T00:11:24.132Z,12.03
2018-12-16T00:13:59.318Z,12.17
2018-12-16T00:16:31.738Z,12.47
2018-12-16T00:19:06.732Z,12.30
2018-12-16T00:21:44.547Z,12.63
2018-12-16T00:24:19.736Z,15.97
2018-12-16T00:27:11.032Z,13.70
2018-12-16T00:29:45.693Z,12.27
2018-12-16T00:32:20.744Z,13.47
2018-12-16T00:34:55.593Z,12.37
2018-12-16T00:37:30.742Z,12.20
2018-12-16T00:40:06.946Z,12.97
2018-12-16T00:42:39.442Z,15.77
2018-12-16T00:45:12.165Z,14.50
2018-12-16T00:47:44.407Z,12.40
2018-12-16T00:50:16.220Z,11.80
2018-12-16T00:55:25.822Z,13.53
2018-12-16T00:57:58.023Z,13.23
2018-12-16T01:00:30.275Z,12.83
2018-12-16T01:03:02.342Z,12.57
2018-12-16T01:05:37.320Z,13.13
2018-12-16T01:08:09.435Z,13.40
2018-12-16T01:10:42.168Z,14.23
2018-12-16T01:13:14.192Z,13.73
2018-12-16T01:15:47.743Z,13.57
2018-12-16T01:18:23.036Z,16.03
2018-12-16T01:20:55.452Z,14.73
2018-12-16T01:23:30.130Z,15.20
2018-12-16T01:26:02.589Z,14.47
2018-12-16T01:28:37.998Z,17.43
2018-12-16T01:31:10.778Z,14.63
2018-12-16T01:33:46.133Z,17.40
2018-12-16T01:36:18.473Z,16.53
2018-12-16T01:38:51.147Z,15.97
2018-12-16T01:41:23.260Z,15.97
2018-12-16T01:43:57.897Z,15.03
2018-12-16T01:46:33.389Z,16.43
2018-12-16T01:49:05.610Z,16.70
2018-12-16T01:51:37.498Z,15.77
2018-12-16T01:56:43.935Z,17.87
2018-12-16T01:59:16.230Z,17.43
2018-12-16T02:01:53.496Z,16.20
2018-12-16T02:04:26.232Z,14.10
2018-12-16T02:06:59.762Z,17.27
2018-12-16T02:09:34.624Z,15.33
2018-12-16T02:12:06.838Z,16.87
2018-12-16T02:14:38.783Z,16.17
2018-12-16T02:17:13.901Z,16.00
2018-12-16T02:19:48.845Z,15.47
2018-12-16T02:22:23.823Z,16.33
2018-12-16T02:24:56.144Z,16.83
2018-12-16T02:27:28.910Z,16.40
2018-12-16T02:30:04.411Z,15.17
2018-12-16T02:32:39.634Z,17.60
2018-12-16T02:35:11.845Z,19.60
2018-12-16T02:37:43.867Z,19.30
2018-12-16T02:40:16.591Z,17.83
2018-12-16T02:42:49.027Z,18.30
2018-12-16T02:45:21.389Z,19.63
2018-12-16T02:47:53.572Z,19.00
2018-12-16T02:50:25.484Z,17.47
2018-12-16T02:53:04.304Z,16.53
2018-12-16T02:55:31.579Z,16.80
2018-12-16T02:58:03.868Z,16.07
2018-12-16T03:05:45.122Z,15.40
2018-12-16T03:08:19.950Z,16.20
2018-12-16T03:10:52.253Z,15.63
2018-12-16T03:13:27.286Z,15.90
2018-12-16T03:16:02.477Z,15.23
2018-12-16T03:18:35.227Z,15.73
2018-12-16T03:21:10.873Z,15.53
2018-12-16T03:23:45.786Z,15.43
2018-12-16T03:26:21.024Z,19.83
2018-12-16T03:28:55.895Z,18.47
2018-12-16T03:31:28.168Z,16.97
2018-12-16T03:34:02.007Z,16.47
2018-12-16T03:36:34.051Z,20.53
2018-12-16T03:39:12.731Z,18.67
2018-12-16T03:41:47.909Z,16.97
2018-12-16T03:44:20.345Z,19.63
2018-12-16T03:46:52.465Z,17.27
2018-12-16T03:49:24.507Z,20.80
2018-12-16T03:51:57.116Z,20.83
2018-12-16T03:54:32.195Z,19.60
2018-12-16T03:57:07.321Z,17.20
2018-12-16T03:59:39.855Z,18.03
2018-12-16T04:02:11.666Z,16.23
2018-12-16T04:04:44.046Z,19.43
2018-12-16T04:07:19.066Z,18.03
2018-12-16T04:09:51.480Z,16.17
2018-12-16T04:12:23.484Z,15.60
2018-12-16T04:14:55.476Z,16.17
2018-12-16T04:17:31.182Z,15.50
2018-12-16T04:20:07.857Z,16.33
2018-12-16T04:22:40.121Z,18.80
2018-12-16T04:25:12.901Z,16.57
2018-12-16T04:27:46.316Z,18.07
2018-12-16T04:30:18.912Z,16.07
2018-12-16T04:32:51.860Z,16.47
2018-12-16T04:35:25.630Z,17.67
2018-12-16T04:37:57.870Z,17.03
2018-12-16T04:40:30.540Z,15.13
2018-12-16T04:43:02.720Z,18.53
2018-12-16T04:45:35.143Z,13.47
2018-12-16T04:48:07.224Z,13.37
2018-12-16T04:50:39.809Z,13.53
2018-12-16T04:53:16.768Z,13.10
2018-12-16T04:55:49.487Z,14.17
2018-12-16T04:58:21.466Z,12.70
2018-12-16T05:00:57.210Z,12.10
2018-12-16T05:03:32.841Z,12.73
2018-12-16T05:06:09.078Z,13.10
2018-12-16T05:08:44.378Z,11.83
2018-12-16T05:11:16.731Z,12.80
2018-12-16T05:13:48.846Z,14.87
2018-12-16T05:16:21.097Z,12.07
2018-12-16T05:18:53.211Z,12.80
2018-12-16T05:21:25.123Z,13.33
2018-12-16T05:24:00.274Z,13.20
2018-12-16T05:26:32.331Z,12.33
2018-12-16T05:29:07.018Z,13.60
2018-12-16T05:31:42.805Z,13.90
2018-12-16T05:34:18.195Z,13.10
2018-12-16T05:36:53.263Z,16.37
2018-12-16T05:39:25.723Z,14.07
2018-12-16T05:42:00.470Z,12.30
2018-12-16T05:44:36.589Z,13.23
2018-12-16T05:47:12.923Z,15.10
2018-12-16T05:49:45.154Z,14.67
2018-12-16T05:52:17.886Z,14.50
2018-12-16T05:54:50.465Z,14.63
2018-12-16T05:57:22.295Z,13.87
2018-12-16T05:59:54.308Z,12.33
2018-12-16T06:02:29.312Z,13.00
2018-12-16T06:05:05.350Z,13.27
2018-12-16T06:07:40.299Z,14.37
2018-12-16T06:10:15.255Z,15.40
2018-12-16T06:12:52.360Z,13.87
2018-12-16T06:15:27.482Z,13.20
2018-12-16T06:18:02.779Z,13.30
2018-12-16T06:20:41.614Z,14.03
2018-12-16T06:23:16.792Z,14.80
2018-12-16T06:25:49.166Z,16.10
2018-12-16T06:28:22.242Z,14.17
2018-12-16T06:30:56.950Z,14.97
2018-12-16T06:33:31.841Z,14.57
2018-12-16T06:36:07.142Z,14.73
2018-12-16T06:38:47.483Z,12.67
2018-12-16T06:41:22.411Z,12.23
2018-12-16T06:43:54.701Z,15.03
2018-12-16T06:46:29.470Z,14.93
2018-12-16T06:49:04.591Z,14.00
2018-12-16T06:51:41.583Z,12.23
2018-12-16T06:54:27.246Z,12.87
2018-12-16T06:57:00.026Z,11.93
2018-12-16T06:59:38.604Z,13.27
2018-12-16T07:02:15.937Z,13.33
2018-12-16T07:04:51.264Z,13.30
2018-12-16T07:07:23.542Z,13.77
2018-12-16T07:15:51.119Z,13.83
2018-12-16T07:18:26.354Z,17.67
2018-12-16T07:20:58.780Z,15.43
2018-12-16T07:23:30.840Z,15.77
2018-12-16T07:26:03.327Z,18.00
2018-12-16T07:28:38.625Z,17.53
2018-12-16T07:31:11.266Z,18.13
2018-12-16T07:33:46.756Z,17.50
2018-12-16T07:36:19.852Z,16.77
2018-12-16T07:38:55.582Z,17.33
2018-12-16T07:41:30.320Z,16.77
2018-12-16T07:44:03.117Z,14.43
2018-12-16T07:46:35.544Z,14.90
2018-12-16T07:49:10.202Z,14.10
2018-12-16T07:51:42.550Z,17.90
2018-12-16T07:54:16.132Z,17.03
2018-12-16T07:56:51.850Z,17.27
2018-12-16T07:59:28.407Z,17.40
2018-12-16T08:02:03.623Z,17.97
2018-12-16T08:04:39.448Z,17.53
2018-12-16T08:07:12.217Z,19.03
2018-12-16T08:09:47.204Z,16.97
2018-12-16T08:12:22.973Z,18.00
2018-12-16T08:14:58.376Z,17.83
2018-12-16T08:17:33.603Z,18.43
2018-12-16T08:20:11.904Z,16.90
2018-12-16T08:22:44.514Z,14.87
2018-12-16T08:25:17.557Z,15.10
2018-12-16T08:27:50.076Z,14.10
2018-12-16T08:30:22.293Z,13.70
2018-12-16T08:32:55.174Z,16.17
2018-12-16T08:35:30.016Z,15.43
2018-12-16T08:38:03.461Z,15.97
2018-12-16T08:40:35.954Z,16.33
2018-12-16T08:43:13.070Z,17.40
2018-12-16T08:45:48.450Z,17.53
2018-12-16T08:48:22.267Z,16.27
2018-12-16T08:50:56.811Z,17.37
2018-12-16T08:53:31.631Z,17.83
2018-12-16T08:56:03.957Z,17.13
2018-12-16T08:58:36.625Z,17.93
2018-12-16T09:01:09.157Z,17.97
2018-12-16T09:03:41.774Z,17.17
2018-12-16T09:06:19.974Z,18.20
2018-12-16T09:08:52.966Z,17.70
2018-12-16T09:11:30.750Z,16.87
2018-12-16T09:14:07.416Z,17.63
2018-12-16T09:16:42.560Z,16.87
2018-12-16T09:19:17.840Z,16.93
2018-12-16T09:21:49.975Z,19.00
2018-12-16T09:24:21.948Z,17.23
2018-12-16T09:26:53.966Z,17.67
2018-12-16T09:29:27.907Z,17.30
2018-12-16T09:32:02.805Z,15.93
2018-12-16T09:34:35.194Z,16.90
2018-12-16T09:37:08.288Z,14.90
2018-12-16T09:39:41.070Z,17.70
2018-12-16T09:42:20.474Z,17.93
2018-12-16T09:44:53.095Z,15.60
2018-12-16T09:47:25.309Z,16.97
2018-12-16T09:50:00.799Z,17.93
2018-12-16T09:52:33.195Z,17.50
2018-12-16T09:55:08.456Z,16.27
2018-12-16T09:57:43.322Z,15.60
2018-12-16T10:00:18.458Z,16.60
2018-12-16T10:02:50.559Z,16.23
2018-12-16T10:05:22.754Z,16.97
2018-12-16T10:07:55.339Z,16.50
2018-12-16T10:10:30.431Z,15.77
2018-12-16T10:13:03.230Z,15.93
2018-12-16T10:15:35.984Z,16.03
2018-12-16T10:18:10.618Z,15.17
2018-12-16T10:20:42.915Z,14.87
2018-12-16T10:23:17.700Z,14.50
2018-12-16T10:25:50.036Z,14.77
2018-12-16T10:28:22.068Z,15.00
2018-12-16T10:30:55.421Z,14.40
2018-12-16T10:33:30.862Z,15.07
2018-12-16T10:36:03.265Z,15.43
2018-12-16T10:38:38.244Z,15.00
2018-12-16T10:41:14.126Z,14.20
2018-12-16T10:43:50.664Z,13.53
2018-12-16T10:46:23.400Z,14.73
2018-12-16T10:48:55.307Z,16.13
2018-12-16T10:51:30.868Z,16.10
2018-12-16T10:54:04.302Z,15.83
2018-12-16T10:56:37.439Z,15.13
2018-12-16T10:59:12.800Z,14.40
2018-12-16T11:01:48.608Z,14.37
2018-12-16T11:04:24.806Z,14.00
2018-12-16T11:06:59.908Z,14.70
2018-12-16T11:09:35.089Z,15.00
2018-12-16T11:12:08.890Z,15.63
2018-12-16T11:14:43.400Z,15.03
2018-12-16T11:17:18.353Z,16.87
2018-12-16T11:19:50.749Z,15.43
2018-12-16T11:22:22.832Z,16.20
2018-12-16T11:24:56.844Z,16.53
2018-12-16T11:27:29.182Z,16.63
2018-12-16T11:30:01.334Z,16.03
2018-12-16T11:32:33.350Z,16.63
2018-12-16T11:35:06.379Z,16.17
2018-12-16T11:37:40.015Z,16.87
2018-12-16T11:40:16.415Z,16.90
2018-12-16T11:42:49.214Z,16.47
2018-12-16T11:45:27.646Z,17.23
2018-12-16T11:48:03.181Z,16.83
2018-12-16T11:50:42.510Z,16.90
2018-12-16T11:53:15.299Z,16.40
2018-12-16T11:55:49.946Z,17.10
2018-12-16T11:58:22.347Z,15.23
2018-12-16T12:00:58.123Z,16.00
2018-12-16T12:03:33.318Z,15.67
2018-12-16T12:06:08.265Z,15.40
2018-12-16T12:08:40.710Z,15.17
2018-12-16T12:11:13.480Z,15.00
2018-12-16T12:13:49.073Z,17.50
2018-12-16T12:16:24.812Z,16.43
2018-12-16T12:19:01.760Z,15.33
2018-12-16T12:21:34.251Z,15.43
2018-12-16T12:24:12.624Z,15.47
2018-12-16T12:26:48.090Z,14.67
2018-12-16T12:29:20.736Z,14.80
2018-12-16T12:31:53.031Z,14.77
2018-12-16T12:34:25.296Z,15.77
2018-12-16T12:37:00.197Z,15.30
2018-12-16T12:39:32.377Z,15.27
2018-12-16T12:42:07.393Z,15.47
2018-12-16T12:44:40.229Z,14.87
2018-12-16T12:47:15.359Z,13.17
2018-12-16T12:49:50.216Z,14.03
2018-12-16T12:52:25.180Z,14.67
2018-12-16T12:55:04.961Z,12.13
2018-12-16T12:57:40.527Z,11.40
2018-12-16T13:00:13.872Z,11.10
2018-12-16T13:02:45.887Z,12.17
2018-12-16T13:05:17.725Z,11.70
2018-12-16T13:07:50.802Z,11.63
2018-12-16T13:10:25.330Z,12.13
2018-12-16T13:13:00.557Z,11.67
2018-12-16T13:15:35.525Z,11.27
2018-12-16T13:18:07.551Z,11.60
2018-12-16T13:20:43.270Z,10.67
2018-12-16T13:23:15.738Z,12.33
2018-12-16T13:26:05.079Z,12.13
2018-12-16T13:28:37.083Z,12.33
2018-12-16T13:31:11.973Z,12.90
2018-12-16T13:33:47.237Z,12.67
2018-12-16T13:36:27.162Z,13.80
2018-12-16T13:38:59.974Z,17.53
2018-12-16T13:41:32.237Z,15.07
2018-12-16T13:44:11.779Z,14.10
2018-12-16T13:46:45.304Z,15.00
2018-12-16T13:49:17.296Z,14.20
2018-12-16T13:51:53.007Z,15.27
2018-12-16T13:54:28.274Z,14.77
2018-12-16T13:57:03.492Z,14.53
2018-12-16T13:59:38.554Z,15.87
2018-12-16T14:02:11.004Z,15.10
2018-12-16T14:04:46.324Z,15.33
2018-12-16T14:07:21.792Z,16.20
2018-12-16T14:09:54.057Z,15.20
2018-12-16T14:12:27.066Z,14.60
2018-12-16T14:15:02.007Z,14.57
2018-12-16T14:17:34.276Z,15.23
2018-12-16T14:20:08.161Z,15.70
2018-12-16T14:22:43.024Z,16.83
2018-12-16T14:25:18.101Z,17.00
2018-12-16T14:27:50.432Z,18.10
2018-12-16T14:30:25.977Z,19.93
2018-12-16T14:33:01.249Z,19.43
2018-12-16T14:35:33.480Z,19.37
2018-12-16T14:38:08.545Z,19.67
2018-12-16T14:40:43.408Z,19.20
2018-12-16T14:43:18.583Z,19.80
2018-12-16T14:45:53.655Z,20.50
2018-12-16T14:48:26.414Z,19.27
2018-12-16T14:50:58.321Z,20.40
2018-12-16T14:53:30.347Z,22.90
2018-12-16T14:56:02.548Z,19.90
2018-12-16T14:58:37.108Z,20.80
2018-12-16T15:01:09.818Z,21.97
2018-12-16T15:03:42.322Z,21.47
2018-12-16T15:06:14.498Z,20.47
2018-12-16T15:08:49.226Z,22.77
2018-12-16T15:11:21.498Z,20.87
2018-12-16T15:13:53.506Z,21.70
2018-12-16T15:16:30.186Z,21.63
2018-12-16T15:19:02.907Z,21.13
2018-12-16T15:21:35.513Z,22.17
2018-12-16T15:24:07.701Z,21.87
2018-12-16T15:26:39.890Z,22.17
2018-12-16T15:29:11.945Z,20.93
2018-12-16T15:31:45.622Z,21.63
2018-12-16T15:34:26.389Z,21.63
2018-12-16T15:36:59.286Z,23.07
2018-12-16T15:39:31.785Z,20.87
2018-12-16T15:42:06.834Z,21.10
2018-12-16T15:44:39.123Z,22.30
2018-12-16T15:47:11.355Z,22.50
2018-12-16T15:49:43.640Z,21.67
2018-12-16T15:52:18.272Z,23.00
2018-12-16T15:54:53.240Z,20.07
2018-12-16T15:57:25.882Z,22.37
2018-12-16T16:00:00.862Z,21.40
2018-12-16T16:02:33.226Z,22.87
2018-12-16T16:05:05.837Z,21.13
2018-12-16T16:07:38.453Z,21.63
2018-12-16T16:10:13.771Z,20.57
2018-12-16T16:12:48.143Z,21.37
2018-12-16T16:15:23.663Z,21.87
2018-12-16T16:17:59.215Z,21.20
2018-12-16T16:20:32.021Z,20.30
2018-12-16T16:23:06.987Z,19.90
2018-12-16T16:25:39.917Z,21.87
2018-12-16T16:28:12.434Z,19.80
2018-12-16T16:30:44.448Z,19.37
2018-12-16T16:33:19.596Z,21.37
2018-12-16T16:35:54.253Z,19.97
2018-12-16T16:38:26.449Z,20.70
2018-12-16T16:40:58.554Z,20.23
2018-12-16T16:43:31.768Z,19.80
2018-12-16T16:46:06.644Z,20.93
2018-12-16T16:48:40.389Z,19.87
2018-12-16T16:51:13.270Z,19.37
2018-12-16T16:53:46.032Z,19.00
2018-12-16T16:56:23.127Z,19.87
2018-12-16T16:58:55.345Z,19.80
2018-12-16T17:01:27.164Z,18.30
2018-12-16T17:03:59.351Z,18.43
2018-12-16T17:06:31.442Z,18.50
2018-12-16T17:09:05.456Z,18.30
2018-12-16T17:11:37.515Z,17.27
2018-12-16T17:14:09.618Z,18.20
2018-12-16T17:16:45.425Z,18.83
2018-12-16T17:19:18.127Z,16.57
2018-12-16T17:21:51.553Z,16.70
2018-12-16T17:24:26.995Z,18.23
2018-12-16T17:26:59.844Z,17.20
2018-12-16T17:29:32.040Z,17.27
2018-12-16T17:32:07.016Z,16.87
2018-12-16T17:34:40.042Z,16.83
2018-12-16T17:37:12.555Z,19.13
2018-12-16T17:39:44.762Z,19.60
2018-12-16T17:42:16.850Z,17.80
2018-12-16T17:44:52.892Z,18.23
2018-12-16T17:47:27.472Z,17.60
2018-12-16T17:50:03.955Z,16.63
2018-12-16T17:52:36.317Z,15.43
2018-12-16T17:55:09.034Z,16.17
2018-12-16T17:57:41.431Z,18.00
2018-12-16T18:00:16.958Z,17.10
2018-12-16T18:02:49.085Z,16.73
2018-12-16T18:05:24.014Z,17.87
2018-12-16T18:07:56.247Z,20.17
2018-12-16T18:10:32.682Z,21.50
2018-12-16T18:13:06.644Z,20.13
2018-12-16T18:15:41.971Z,20.77
2018-12-16T18:18:16.942Z,20.80
2018-12-16T18:20:52.099Z,18.20
2018-12-16T18:23:29.679Z,17.57
2018-12-16T18:26:00.588Z,19.67
2018-12-16T18:28:32.500Z,16.67
2018-12-16T18:31:04.615Z,16.00
2018-12-16T18:33:39.475Z,17.23
2018-12-16T18:36:14.640Z,18.50
2018-12-16T18:38:49.631Z,18.07
2018-12-16T18:41:24.899Z,17.57
2018-12-16T18:43:57.830Z,23.10
2018-12-16T18:46:32.836Z,20.17
2018-12-16T18:49:05.130Z,21.50
2018-12-16T18:51:42.512Z,19.57
2018-12-16T18:54:17.503Z,19.33
2018-12-16T18:56:51.296Z,20.13
2018-12-16T18:59:23.922Z,18.50
2018-12-16T19:01:55.793Z,19.30
2018-12-16T19:04:31.783Z,19.13
2018-12-16T19:07:04.198Z,19.10
2018-12-16T19:09:39.069Z,19.63
2018-12-16T19:12:12.824Z,20.97
2018-12-16T19:14:45.846Z,21.50
2018-12-16T19:17:20.720Z,17.57
2018-12-16T19:19:52.943Z,20.00
2018-12-16T19:22:24.972Z,19.87
2018-12-16T19:24:57.058Z,19.33
2018-12-16T19:27:28.980Z,19.10
2018-12-16T19:30:00.970Z,17.17
2018-12-16T19:32:33.202Z,15.40
2018-12-16T19:35:07.247Z,17.17
2018-12-16T19:37:39.649Z,16.87
2018-12-16T19:40:12.377Z,17.43
2018-12-16T19:42:48.852Z,16.20
2018-12-16T19:45:21.357Z,16.20
2018-12-16T19:47:55.171Z,16.73
2018-12-16T19:50:30.647Z,15.87
2018-12-16T19:53:06.014Z,15.70
2018-12-16T19:55:38.946Z,15.80
2018-12-16T19:58:18.515Z,15.70
2018-12-16T20:00:53.403Z,15.50
2018-12-16T20:03:25.940Z,17.70
2018-12-16T20:06:03.548Z,14.97
2018-12-16T20:08:36.655Z,17.23
2018-12-16T20:11:08.609Z,16.70
2018-12-16T20:13:44.234Z,16.53
2018-12-16T20:16:17.419Z,17.33
2018-12-16T20:18:49.445Z,18.67
2018-12-16T20:21:24.028Z,16.83
2018-12-16T20:23:56.485Z,17.30
2018-12-16T20:26:28.636Z,17.77
2018-12-16T20:29:01.517Z,16.40
2018-12-16T20:31:34.501Z,15.40
2018-12-16T20:34:10.494Z,16.00
2018-12-16T20:36:45.334Z,15.60
2018-12-16T20:39:28.752Z,16.63
2018-12-16T20:42:01.427Z,17.33
2018-12-16T20:44:41.267Z,17.77
2018-12-16T20:47:16.546Z,18.93
2018-12-16T20:49:49.004Z,19.33
2018-12-16T20:52:37.254Z,17.80
2018-12-16T20:55:09.275Z,19.80
2018-12-16T20:57:45.198Z,21.37
2018-12-16T21:00:17.600Z,20.10
2018-12-16T21:02:49.975Z,19.60
2018-12-16T21:05:23.646Z,19.50
2018-12-16T21:07:56.051Z,22.23
2018-12-16T21:10:28.260Z,24.90
2018-12-16T21:13:08.959Z,20.70
2018-12-16T21:15:49.721Z,21.47
2018-12-16T21:18:23.922Z,21.10
2018-12-16T21:20:59.411Z,17.30
2018-12-16T21:23:33.726Z,16.23
2018-12-16T21:26:06.812Z,17.90
2018-12-16T21:28:41.581Z,21.73
2018-12-16T21:31:17.694Z,17.77
2018-12-16T21:33:50.174Z,20.50
2018-12-16T21:36:22.374Z,17.57
2018-12-16T21:38:57.346Z,22.10
2018-12-16T21:41:32.690Z,18.87
2018-12-16T21:44:05.016Z,19.50
2018-12-16T21:46:36.843Z,20.07
2018-12-16T21:49:09.135Z,18.67
2018-12-16T21:51:41.413Z,19.10
2018-12-16T21:54:16.453Z,18.63
2018-12-16T21:56:51.343Z,21.33
2018-12-16T21:59:23.661Z,18.27
2018-12-16T22:01:56.518Z,19.43
2018-12-16T22:04:28.636Z,19.03
2018-12-16T22:07:03.387Z,19.97
2018-12-16T22:09:38.643Z,17.47
2018-12-16T22:12:10.848Z,17.20
2018-12-16T22:14:42.930Z,22.77
2018-12-16T22:17:18.428Z,21.27
2018-12-16T22:19:50.962Z,21.83
2018-12-16T22:22:23.092Z,21.80
2018-12-16T22:24:55.085Z,17.80
2018-12-16T22:27:29.948Z,19.63
2018-12-16T22:30:02.154Z,18.17
2018-12-16T22:32:34.312Z,18.90
2018-12-16T22:35:06.818Z,19.50
2018-12-16T22:37:41.357Z,18.33
2018-12-16T22:40:16.537Z,16.97
2018-12-16T22:42:51.169Z,21.13
2018-12-16T22:45:23.305Z,18.13
2018-12-16T22:47:55.634Z,20.63
2018-12-16T22:50:30.390Z,18.60
2018-12-16T22:53:02.577Z,17.97
2018-12-16T22:55:37.734Z,20.20
2018-12-16T22:58:09.823Z,18.97
2018-12-16T23:00:47.587Z,19.57
2018-12-16T23:03:22.524Z,21.83
2018-12-16T23:05:57.699Z,19.07
2018-12-16T23:08:30.038Z,21.33
2018-12-16T23:11:02.048Z,22.97
2018-12-16T23:13:36.782Z,22.97
2018-12-16T23:16:09.060Z,22.03
2018-12-16T23:18:41.904Z,21.00
2018-12-16T23:21:17.564Z,25.67
2018-12-16T23:23:52.631Z,23.53
2018-12-16T23:26:27.918Z,22.60
2018-12-16T23:28:59.798Z,25.03
2018-12-16T23:31:34.894Z,23.33
2018-12-16T23:34:07.311Z,27.73
2018-12-16T23:36:39.437Z,25.17
2018-12-16T23:39:11.558Z,22.67
2018-12-16T23:41:44.644Z,28.40
2018-12-16T23:44:19.507Z,26.17
2018-12-16T23:46:55.326Z,27.57
2018-12-16T23:49:27.534Z,26.53
2018-12-16T23:51:59.954Z,24.87
2018-12-16T23:54:32.315Z,23.90
2018-12-16T23:57:04.783Z,24.43
2018-12-16T23:59:39.468Z,29.50
